Details From KVNY - Van Nuys
To KPSP - Palm Springs Intl
Flight Number -
Tags Decoded
Created
Modified
Stats Distance 130 nm / 241 km
Max Altitude 0 ft / 0 m
Waypoints 7
Social Downloads 7
Likes 0
Share VATSIM

Download

Looking for another format? Having issues loading an existing format? Contact us
Advertisement - Login to hide

Notes

Decoded

Route

KVNY ADAMM PDZ GARNE PSP TEVUC KPSP

ID Type Via Altitude Latitude Longitude Leg Dist Tot Dist Heading (true) Name
O KVNY APT - 0 ft / 0 m 34.21899˚ -118.49000˚ - 0 nm - -
ADAMM FIX - 0 ft / 0 m 34.01706˚ -117.81681˚ 35 nm 35 nm 110° / 110° -
PDZ VOR - 0 ft / 0 m 33.91833˚ -117.53000˚ 15 nm 51 nm 112° / 113° PARADISE VORTAC
GARNE FIX - 0 ft / 0 m 33.87671˚ -116.56965˚ 47 nm 99 nm 93° / 93° -
PSP VOR - 0 ft / 0 m 33.87003˚ -116.42978˚ 6 nm 105 nm 93° / 93° PALM SPRINGS VORTAC
TEVUC FIX - 0 ft / 0 m 33.67522˚ -116.36519˚ 12 nm 118 nm 165° / 165° -
O KPSP APT - 0 ft / 0 m 33.83517˚ -116.50967˚ 12 nm 130 nm 323° / 323° -

Altitude Profile

Advertisement - Login to hide

KVNY

Details ICAO KVNY (VNY)
Name Van Nuys
Region United States
Timezone America/Los_Angeles (UTC-8.0)
Stats Elevation 802 ft / 244 m (AMSL)
Location 34.210723° -118.489841°
Runways 2
Magnetic Variation 12.075° E

METAR

KVNY 130251Z 01009KT 10SM CLR 21/M26 A3006 RMK AO2 SLP174 T02061261 51008

Decode

TAF

KVNY 122354Z 1300/1324 36012G18KT P6SM SCT250 FM130100 35012KT P6SM SCT250 FM130500 35008KT P6SM SCT250 FM132000 01012KT P6SM SKC

Decode

Departure Runways

ID Width Length Bearing (true) Bearing (mag) Surface Threshold Offset Overrun Length
16L 75 ft / 23 m 4,021 ft / 1,226 m 175.53° 163.45° Asphalt 1,430 ft / 436 m 0 ft / 0 m
16R 151 ft / 46 m 8,022 ft / 2,445 m 175.54° 163.46° Asphalt 1,430 ft / 436 m 151 ft / 46 m
34L 151 ft / 46 m 8,022 ft / 2,445 m 355.54° 343.46° Asphalt 0 ft / 0 m 151 ft / 46 m
34R 75 ft / 23 m 4,021 ft / 1,226 m 355.53° 343.45° Asphalt 0 ft / 0 m 0 ft / 0 m

KPSP

Details ICAO KPSP (PSP)
Name Palm Springs Intl
Region United States
Timezone America/Los_Angeles (UTC-8.0)
Stats Elevation 477 ft / 145 m (AMSL)
Location 33.829677° -116.506218°
Runways 2
Magnetic Variation 11.580° E

METAR

KPSP 130253Z 27003KT 10SM CLR 18/M08 A3011 RMK AO2 SLP197 T01831078 51007

Decode

TAF

KPSP 122327Z 1300/1324 VRB05KT P6SM SKC

Decode

Destination Runways

ID Width Length Bearing (true) Bearing (mag) Surface Threshold Offset Overrun Length
13L 75 ft / 23 m 4,958 ft / 1,511 m 143.52° 131.94° Asphalt 0 ft / 0 m 151 ft / 46 m
13R 151 ft / 46 m 10,012 ft / 3,052 m 143.52° 131.94° Asphalt 2,999 ft / 914 m 200 ft / 61 m
31L 151 ft / 46 m 10,012 ft / 3,052 m 323.53° 311.95° Asphalt 1,499 ft / 457 m 200 ft / 61 m
31R 75 ft / 23 m 4,958 ft / 1,511 m 323.53° 311.95° Asphalt 0 ft / 0 m 151 ft / 46 m

Popular Alternatives